sensor_id;sensor_type;location;lat;lon;timestamp;P1;durP1;ratioP1;P2;durP2;ratioP2
14994;SDS011;7593;49.006;8.372;2023-09-19T00:01:38;2.78;;;1.50;;
14994;SDS011;7593;49.006;8.372;2023-09-19T00:04:07;3.75;;;1.33;;
14994;SDS011;7593;49.006;8.372;2023-09-19T00:06:36;3.22;;;1.42;;
14994;SDS011;7593;49.006;8.372;2023-09-19T00:09:03;2.70;;;1.40;;
14994;SDS011;7593;49.006;8.372;2023-09-19T00:11:30;2.33;;;1.30;;
14994;SDS011;7593;49.006;8.372;2023-09-19T00:13:57;2.50;;;1.40;;
14994;SDS011;7593;49.006;8.372;2023-09-19T00:16:24;2.95;;;1.33;;
14994;SDS011;7593;49.006;8.372;2023-09-19T00:18:51;2.53;;;1.40;;
14994;SDS011;7593;49.006;8.372;2023-09-19T00:21:19;2.97;;;1.52;;
14994;SDS011;7593;49.006;8.372;2023-09-19T00:23:47;2.97;;;1.50;;
14994;SDS011;7593;49.006;8.372;2023-09-19T00:26:14;1.75;;;1.27;;
14994;SDS011;7593;49.006;8.372;2023-09-19T00:28:43;3.05;;;1.42;;
14994;SDS011;7593;49.006;8.372;2023-09-19T00:31:09;2.10;;;1.17;;
14994;SDS011;7593;49.006;8.372;2023-09-19T00:33:36;1.83;;;1.30;;
14994;SDS011;7593;49.006;8.372;2023-09-19T00:36:03;4.00;;;1.40;;
14994;SDS011;7593;49.006;8.372;2023-09-19T00:38:31;2.40;;;1.38;;
14994;SDS011;7593;49.006;8.372;2023-09-19T00:40:58;4.05;;;1.40;;
14994;SDS011;7593;49.006;8.372;2023-09-19T00:43:25;2.22;;;1.30;;
14994;SDS011;7593;49.006;8.372;2023-09-19T00:45:53;2.53;;;1.58;;
14994;SDS011;7593;49.006;8.372;2023-09-19T00:48:21;2.67;;;1.40;;
14994;SDS011;7593;49.006;8.372;2023-09-19T00:50:49;3.97;;;1.40;;
14994;SDS011;7593;49.006;8.372;2023-09-19T00:53:19;2.35;;;1.30;;
14994;SDS011;7593;49.006;8.372;2023-09-19T00:55:49;1.83;;;1.30;;
14994;SDS011;7593;49.006;8.372;2023-09-19T00:58:17;3.70;;;1.17;;
14994;SDS011;7593;49.006;8.372;2023-09-19T01:00:44;1.30;;;1.20;;
14994;SDS011;7593;49.006;8.372;2023-09-19T01:03:11;1.42;;;1.13;;
14994;SDS011;7593;49.006;8.372;2023-09-19T01:05:39;2.33;;;1.30;;
14994;SDS011;7593;49.006;8.372;2023-09-19T01:08:07;2.00;;;1.20;;
14994;SDS011;7593;49.006;8.372;2023-09-19T01:10:36;1.83;;;1.20;;
14994;SDS011;7593;49.006;8.372;2023-09-19T01:13:13;1.55;;;1.15;;
14994;SDS011;7593;49.006;8.372;2023-09-19T01:15:48;1.05;;;0.98;;
14994;SDS011;7593;49.006;8.372;2023-09-19T01:18:21;1.27;;;1.00;;
14994;SDS011;7593;49.006;8.372;2023-09-19T01:20:57;2.30;;;1.15;;
14994;SDS011;7593;49.006;8.372;2023-09-19T01:23:35;1.38;;;1.10;;
14994;SDS011;7593;49.006;8.372;2023-09-19T01:26:18;1.55;;;1.08;;
14994;SDS011;7593;49.006;8.372;2023-09-19T01:29:04;1.95;;;1.30;;
14994;SDS011;7593;49.006;8.372;2023-09-19T01:31:46;2.28;;;1.10;;
14994;SDS011;7593;49.006;8.372;2023-09-19T01:34:15;2.97;;;1.40;;
14994;SDS011;7593;49.006;8.372;2023-09-19T01:36:43;2.78;;;1.23;;
14994;SDS011;7593;49.006;8.372;2023-09-19T01:39:11;3.15;;;1.08;;
14994;SDS011;7593;49.006;8.372;2023-09-19T01:41:41;1.52;;;1.08;;
14994;SDS011;7593;49.006;8.372;2023-09-19T01:44:17;3.20;;;1.20;;
14994;SDS011;7593;49.006;8.372;2023-09-19T01:46:50;1.55;;;1.00;;
14994;SDS011;7593;49.006;8.372;2023-09-19T01:49:25;1.52;;;1.10;;
14994;SDS011;7593;49.006;8.372;2023-09-19T01:52:00;4.00;;;1.30;;
14994;SDS011;7593;49.006;8.372;2023-09-19T01:54:32;1.95;;;1.20;;
14994;SDS011;7593;49.006;8.372;2023-09-19T01:57:07;1.70;;;1.02;;
14994;SDS011;7593;49.006;8.372;2023-09-19T01:59:41;2.15;;;1.40;;
14994;SDS011;7593;49.006;8.372;2023-09-19T02:02:16;1.92;;;1.05;;
14994;SDS011;7593;49.006;8.372;2023-09-19T02:04:43;2.35;;;1.17;;
14994;SDS011;7593;49.006;8.372;2023-09-19T02:07:10;1.85;;;1.20;;
14994;SDS011;7593;49.006;8.372;2023-09-19T02:09:37;4.18;;;1.27;;
14994;SDS011;7593;49.006;8.372;2023-09-19T02:12:05;2.33;;;1.20;;
14994;SDS011;7593;49.006;8.372;2023-09-19T02:14:32;1.80;;;1.20;;
14994;SDS011;7593;49.006;8.372;2023-09-19T02:17:01;2.70;;;1.10;;
14994;SDS011;7593;49.006;8.372;2023-09-19T02:19:29;1.85;;;1.25;;
14994;SDS011;7593;49.006;8.372;2023-09-19T02:21:58;2.88;;;1.10;;
14994;SDS011;7593;49.006;8.372;2023-09-19T02:24:28;2.17;;;1.20;;
14994;SDS011;7593;49.006;8.372;2023-09-19T02:26:55;3.47;;;1.30;;
14994;SDS011;7593;49.006;8.372;2023-09-19T02:29:22;1.90;;;1.30;;
14994;SDS011;7593;49.006;8.372;2023-09-19T02:31:49;4.10;;;1.30;;
14994;SDS011;7593;49.006;8.372;2023-09-19T02:34:16;1.77;;;1.20;;
14994;SDS011;7593;49.006;8.372;2023-09-19T02:36:45;2.33;;;1.40;;
14994;SDS011;7593;49.006;8.372;2023-09-19T02:39:12;2.30;;;1.25;;
14994;SDS011;7593;49.006;8.372;2023-09-19T02:41:38;1.58;;;1.17;;
14994;SDS011;7593;49.006;8.372;2023-09-19T02:44:06;2.88;;;1.50;;
14994;SDS011;7593;49.006;8.372;2023-09-19T02:46:33;2.53;;;1.27;;
14994;SDS011;7593;49.006;8.372;2023-09-19T02:49:02;4.40;;;1.48;;
14994;SDS011;7593;49.006;8.372;2023-09-19T02:51:30;2.92;;;1.45;;
14994;SDS011;7593;49.006;8.372;2023-09-19T02:53:58;3.22;;;1.50;;
14994;SDS011;7593;49.006;8.372;2023-09-19T02:56:25;3.38;;;1.90;;
14994;SDS011;7593;49.006;8.372;2023-09-19T02:58:52;1.42;;;1.25;;
14994;SDS011;7593;49.006;8.372;2023-09-19T03:01:20;6.40;;;1.60;;
14994;SDS011;7593;49.006;8.372;2023-09-19T03:03:47;2.40;;;1.50;;
14994;SDS011;7593;49.006;8.372;2023-09-19T03:06:14;2.17;;;1.40;;
14994;SDS011;7593;49.006;8.372;2023-09-19T03:08:41;2.67;;;1.75;;
14994;SDS011;7593;49.006;8.372;2023-09-19T03:11:10;2.90;;;1.70;;
14994;SDS011;7593;49.006;8.372;2023-09-19T03:13:38;2.95;;;1.70;;
14994;SDS011;7593;49.006;8.372;2023-09-19T03:16:05;2.30;;;1.60;;
14994;SDS011;7593;49.006;8.372;2023-09-19T03:18:31;3.58;;;1.70;;
14994;SDS011;7593;49.006;8.372;2023-09-19T03:21:00;2.83;;;1.63;;
14994;SDS011;7593;49.006;8.372;2023-09-19T03:23:27;3.38;;;1.52;;
14994;SDS011;7593;49.006;8.372;2023-09-19T03:25:54;1.65;;;1.55;;
14994;SDS011;7593;49.006;8.372;2023-09-19T03:28:23;2.53;;;1.80;;
14994;SDS011;7593;49.006;8.372;2023-09-19T03:31:00;3.33;;;1.63;;
14994;SDS011;7593;49.006;8.372;2023-09-19T03:33:27;3.40;;;1.95;;
14994;SDS011;7593;49.006;8.372;2023-09-19T03:35:56;2.85;;;1.75;;
14994;SDS011;7593;49.006;8.372;2023-09-19T03:38:24;2.15;;;1.70;;
14994;SDS011;7593;49.006;8.372;2023-09-19T03:40:51;5.07;;;1.80;;
14994;SDS011;7593;49.006;8.372;2023-09-19T03:43:18;2.75;;;1.42;;
14994;SDS011;7593;49.006;8.372;2023-09-19T03:45:46;2.30;;;1.45;;
14994;SDS011;7593;49.006;8.372;2023-09-19T03:48:13;2.20;;;1.45;;
14994;SDS011;7593;49.006;8.372;2023-09-19T03:50:40;2.85;;;1.50;;
14994;SDS011;7593;49.006;8.372;2023-09-19T03:53:09;2.88;;;1.83;;
14994;SDS011;7593;49.006;8.372;2023-09-19T03:55:36;3.72;;;2.03;;
14994;SDS011;7593;49.006;8.372;2023-09-19T03:58:03;3.25;;;1.60;;
14994;SDS011;7593;49.006;8.372;2023-09-19T04:00:30;5.20;;;2.05;;
14994;SDS011;7593;49.006;8.372;2023-09-19T04:02:58;4.13;;;1.80;;
14994;SDS011;7593;49.006;8.372;2023-09-19T04:05:27;3.17;;;1.85;;
14994;SDS011;7593;49.006;8.372;2023-09-19T04:07:54;3.70;;;1.63;;
14994;SDS011;7593;49.006;8.372;2023-09-19T04:10:20;2.53;;;1.67;;
14994;SDS011;7593;49.006;8.372;2023-09-19T04:12:50;2.58;;;1.80;;
14994;SDS011;7593;49.006;8.372;2023-09-19T04:15:18;3.28;;;1.48;;
14994;SDS011;7593;49.006;8.372;2023-09-19T04:17:47;3.50;;;1.80;;
14994;SDS011;7593;49.006;8.372;2023-09-19T04:20:15;5.45;;;1.70;;
14994;SDS011;7593;49.006;8.372;2023-09-19T04:22:43;2.42;;;1.48;;
14994;SDS011;7593;49.006;8.372;2023-09-19T04:25:10;5.45;;;1.98;;
14994;SDS011;7593;49.006;8.372;2023-09-19T04:27:37;3.25;;;1.77;;
14994;SDS011;7593;49.006;8.372;2023-09-19T04:30:05;2.88;;;1.73;;
14994;SDS011;7593;49.006;8.372;2023-09-19T04:32:37;4.43;;;2.20;;
14994;SDS011;7593;49.006;8.372;2023-09-19T04:35:05;2.30;;;1.90;;
14994;SDS011;7593;49.006;8.372;2023-09-19T04:37:34;12.30;;;3.70;;
14994;SDS011;7593;49.006;8.372;2023-09-19T04:40:03;4.90;;;2.00;;
14994;SDS011;7593;49.006;8.372;2023-09-19T04:42:31;4.45;;;2.00;;
14994;SDS011;7593;49.006;8.372;2023-09-19T04:44:58;5.15;;;1.90;;
14994;SDS011;7593;49.006;8.372;2023-09-19T04:47:25;5.25;;;2.05;;
14994;SDS011;7593;49.006;8.372;2023-09-19T04:49:52;3.00;;;1.80;;
14994;SDS011;7593;49.006;8.372;2023-09-19T04:52:19;5.30;;;2.10;;
14994;SDS011;7593;49.006;8.372;2023-09-19T04:54:47;7.03;;;1.83;;
14994;SDS011;7593;49.006;8.372;2023-09-19T04:57:14;3.83;;;2.10;;
14994;SDS011;7593;49.006;8.372;2023-09-19T04:59:42;3.85;;;2.13;;
14994;SDS011;7593;49.006;8.372;2023-09-19T05:02:08;2.67;;;1.87;;
14994;SDS011;7593;49.006;8.372;2023-09-19T05:04:37;7.35;;;2.20;;
14994;SDS011;7593;49.006;8.372;2023-09-19T05:07:03;4.78;;;1.90;;
14994;SDS011;7593;49.006;8.372;2023-09-19T05:09:30;6.07;;;1.98;;
14994;SDS011;7593;49.006;8.372;2023-09-19T05:12:00;4.60;;;1.83;;
14994;SDS011;7593;49.006;8.372;2023-09-19T05:14:27;8.00;;;1.80;;
14994;SDS011;7593;49.006;8.372;2023-09-19T05:16:55;3.38;;;1.98;;
14994;SDS011;7593;49.006;8.372;2023-09-19T05:19:21;4.35;;;1.83;;
14994;SDS011;7593;49.006;8.372;2023-09-19T05:21:48;3.58;;;2.05;;
14994;SDS011;7593;49.006;8.372;2023-09-19T05:24:15;6.00;;;2.38;;
14994;SDS011;7593;49.006;8.372;2023-09-19T05:26:42;3.80;;;2.00;;
14994;SDS011;7593;49.006;8.372;2023-09-19T05:29:10;4.88;;;2.00;;
14994;SDS011;7593;49.006;8.372;2023-09-19T05:31:37;3.67;;;2.22;;
14994;SDS011;7593;49.006;8.372;2023-09-19T05:34:06;4.82;;;2.20;;
14994;SDS011;7593;49.006;8.372;2023-09-19T05:36:32;6.53;;;2.42;;
14994;SDS011;7593;49.006;8.372;2023-09-19T05:38:59;3.88;;;2.00;;
14994;SDS011;7593;49.006;8.372;2023-09-19T05:41:26;4.47;;;2.30;;
14994;SDS011;7593;49.006;8.372;2023-09-19T05:43:53;4.88;;;1.98;;
14994;SDS011;7593;49.006;8.372;2023-09-19T05:46:21;3.10;;;1.73;;
14994;SDS011;7593;49.006;8.372;2023-09-19T05:48:48;3.78;;;1.92;;
14994;SDS011;7593;49.006;8.372;2023-09-19T05:51:15;4.25;;;2.08;;
14994;SDS011;7593;49.006;8.372;2023-09-19T05:53:43;3.28;;;2.45;;
14994;SDS011;7593;49.006;8.372;2023-09-19T05:56:09;6.20;;;2.20;;
14994;SDS011;7593;49.006;8.372;2023-09-19T05:58:38;6.13;;;2.17;;
14994;SDS011;7593;49.006;8.372;2023-09-19T06:01:08;4.68;;;2.47;;
14994;SDS011;7593;49.006;8.372;2023-09-19T06:03:36;6.00;;;2.08;;
14994;SDS011;7593;49.006;8.372;2023-09-19T06:06:02;3.58;;;2.30;;
14994;SDS011;7593;49.006;8.372;2023-09-19T06:08:31;3.53;;;2.00;;
14994;SDS011;7593;49.006;8.372;2023-09-19T06:10:58;5.38;;;2.17;;
14994;SDS011;7593;49.006;8.372;2023-09-19T06:13:27;3.08;;;2.30;;
14994;SDS011;7593;49.006;8.372;2023-09-19T06:15:54;2.95;;;1.80;;
14994;SDS011;7593;49.006;8.372;2023-09-19T06:18:21;5.07;;;2.30;;
14994;SDS011;7593;49.006;8.372;2023-09-19T06:20:52;2.90;;;1.90;;
14994;SDS011;7593;49.006;8.372;2023-09-19T06:23:19;3.47;;;2.00;;
14994;SDS011;7593;49.006;8.372;2023-09-19T06:25:47;3.85;;;1.85;;
14994;SDS011;7593;49.006;8.372;2023-09-19T06:28:14;3.28;;;2.00;;
14994;SDS011;7593;49.006;8.372;2023-09-19T06:30:45;3.90;;;2.00;;
14994;SDS011;7593;49.006;8.372;2023-09-19T06:33:12;5.07;;;1.85;;
14994;SDS011;7593;49.006;8.372;2023-09-19T06:35:40;2.90;;;1.90;;
14994;SDS011;7593;49.006;8.372;2023-09-19T06:38:08;4.70;;;2.33;;
14994;SDS011;7593;49.006;8.372;2023-09-19T06:40:38;3.85;;;2.00;;
14994;SDS011;7593;49.006;8.372;2023-09-19T06:43:09;4.15;;;1.70;;
14994;SDS011;7593;49.006;8.372;2023-09-19T06:45:36;4.63;;;1.80;;
14994;SDS011;7593;49.006;8.372;2023-09-19T06:48:03;4.60;;;2.10;;
14994;SDS011;7593;49.006;8.372;2023-09-19T06:50:30;4.13;;;2.15;;
14994;SDS011;7593;49.006;8.372;2023-09-19T06:52:59;6.32;;;2.10;;
14994;SDS011;7593;49.006;8.372;2023-09-19T06:55:28;5.15;;;1.90;;
14994;SDS011;7593;49.006;8.372;2023-09-19T06:57:56;8.13;;;2.10;;
14994;SDS011;7593;49.006;8.372;2023-09-19T07:00:24;9.45;;;2.78;;
14994;SDS011;7593;49.006;8.372;2023-09-19T07:02:57;3.80;;;1.85;;
14994;SDS011;7593;49.006;8.372;2023-09-19T07:05:25;6.45;;;1.90;;
14994;SDS011;7593;49.006;8.372;2023-09-19T07:07:53;5.15;;;2.08;;
14994;SDS011;7593;49.006;8.372;2023-09-19T07:10:20;4.13;;;1.88;;
14994;SDS011;7593;49.006;8.372;2023-09-19T07:12:54;3.63;;;1.83;;
14994;SDS011;7593;49.006;8.372;2023-09-19T07:15:22;4.50;;;2.10;;
14994;SDS011;7593;49.006;8.372;2023-09-19T07:17:50;7.78;;;2.10;;
14994;SDS011;7593;49.006;8.372;2023-09-19T07:20:18;5.93;;;2.00;;
14994;SDS011;7593;49.006;8.372;2023-09-19T07:22:44;3.28;;;1.70;;
14994;SDS011;7593;49.006;8.372;2023-09-19T07:25:12;4.05;;;1.80;;
14994;SDS011;7593;49.006;8.372;2023-09-19T07:27:40;2.85;;;1.80;;
14994;SDS011;7593;49.006;8.372;2023-09-19T07:30:08;3.22;;;1.73;;
14994;SDS011;7593;49.006;8.372;2023-09-19T07:32:36;3.47;;;1.50;;
14994;SDS011;7593;49.006;8.372;2023-09-19T07:35:04;5.03;;;2.15;;
14994;SDS011;7593;49.006;8.372;2023-09-19T07:37:31;3.45;;;2.00;;
14994;SDS011;7593;49.006;8.372;2023-09-19T07:39:59;4.82;;;1.95;;
14994;SDS011;7593;49.006;8.372;2023-09-19T07:42:26;9.38;;;1.70;;
14994;SDS011;7593;49.006;8.372;2023-09-19T07:44:53;3.28;;;1.60;;
14994;SDS011;7593;49.006;8.372;2023-09-19T07:47:21;5.70;;;2.22;;
14994;SDS011;7593;49.006;8.372;2023-09-19T07:49:48;5.15;;;2.17;;
14994;SDS011;7593;49.006;8.372;2023-09-19T07:52:15;5.43;;;1.75;;
14994;SDS011;7593;49.006;8.372;2023-09-19T07:54:41;11.68;;;2.47;;
14994;SDS011;7593;49.006;8.372;2023-09-19T07:57:09;5.72;;;2.00;;
14994;SDS011;7593;49.006;8.372;2023-09-19T07:59:37;5.13;;;1.85;;
14994;SDS011;7593;49.006;8.372;2023-09-19T08:02:07;5.68;;;2.10;;
14994;SDS011;7593;49.006;8.372;2023-09-19T08:04:36;3.28;;;2.03;;
14994;SDS011;7593;49.006;8.372;2023-09-19T08:07:03;3.25;;;1.65;;
14994;SDS011;7593;49.006;8.372;2023-09-19T08:09:30;2.38;;;2.00;;
14994;SDS011;7593;49.006;8.372;2023-09-19T08:11:59;3.70;;;2.13;;
14994;SDS011;7593;49.006;8.372;2023-09-19T08:14:28;5.65;;;1.80;;
14994;SDS011;7593;49.006;8.372;2023-09-19T08:16:56;3.90;;;1.83;;
14994;SDS011;7593;49.006;8.372;2023-09-19T08:19:23;2.42;;;1.42;;
14994;SDS011;7593;49.006;8.372;2023-09-19T08:21:54;3.75;;;1.65;;
14994;SDS011;7593;49.006;8.372;2023-09-19T08:24:23;2.30;;;1.70;;
14994;SDS011;7593;49.006;8.372;2023-09-19T08:26:52;10.68;;;1.92;;
14994;SDS011;7593;49.006;8.372;2023-09-19T08:29:20;3.92;;;1.67;;
14994;SDS011;7593;49.006;8.372;2023-09-19T08:31:46;4.53;;;1.88;;
14994;SDS011;7593;49.006;8.372;2023-09-19T08:34:14;3.10;;;1.55;;
14994;SDS011;7593;49.006;8.372;2023-09-19T08:36:41;3.60;;;1.60;;
14994;SDS011;7593;49.006;8.372;2023-09-19T08:39:10;2.25;;;1.45;;
14994;SDS011;7593;49.006;8.372;2023-09-19T08:41:38;3.20;;;1.60;;
14994;SDS011;7593;49.006;8.372;2023-09-19T08:44:05;4.40;;;1.80;;
14994;SDS011;7593;49.006;8.372;2023-09-19T08:46:33;5.30;;;1.50;;
14994;SDS011;7593;49.006;8.372;2023-09-19T08:49:03;2.85;;;1.40;;
14994;SDS011;7593;49.006;8.372;2023-09-19T08:51:35;2.90;;;1.30;;
14994;SDS011;7593;49.006;8.372;2023-09-19T08:54:11;4.75;;;1.50;;
14994;SDS011;7593;49.006;8.372;2023-09-19T08:56:47;5.10;;;1.58;;
14994;SDS011;7593;49.006;8.372;2023-09-19T08:59:14;3.95;;;1.20;;
14994;SDS011;7593;49.006;8.372;2023-09-19T09:01:42;5.00;;;1.38;;
14994;SDS011;7593;49.006;8.372;2023-09-19T09:04:09;2.95;;;1.23;;
14994;SDS011;7593;49.006;8.372;2023-09-19T09:06:38;3.45;;;1.15;;
14994;SDS011;7593;49.006;8.372;2023-09-19T09:09:05;5.57;;;1.60;;
14994;SDS011;7593;49.006;8.372;2023-09-19T09:11:35;3.90;;;1.42;;
14994;SDS011;7593;49.006;8.372;2023-09-19T09:14:05;1.73;;;1.10;;
14994;SDS011;7593;49.006;8.372;2023-09-19T09:16:33;2.60;;;1.17;;
14994;SDS011;7593;49.006;8.372;2023-09-19T09:19:00;4.05;;;1.30;;
14994;SDS011;7593;49.006;8.372;2023-09-19T09:21:27;3.13;;;1.67;;
14994;SDS011;7593;49.006;8.372;2023-09-19T09:23:54;3.95;;;1.50;;
14994;SDS011;7593;49.006;8.372;2023-09-19T09:29:10;2.72;;;1.42;;
14994;SDS011;7593;49.006;8.372;2023-09-19T09:31:37;2.15;;;1.17;;
14994;SDS011;7593;49.006;8.372;2023-09-19T09:34:04;5.85;;;1.70;;
14994;SDS011;7593;49.006;8.372;2023-09-19T09:36:35;3.78;;;1.10;;
14994;SDS011;7593;49.006;8.372;2023-09-19T09:39:02;1.80;;;1.27;;
14994;SDS011;7593;49.006;8.372;2023-09-19T09:41:41;3.88;;;1.58;;
14994;SDS011;7593;49.006;8.372;2023-09-19T09:44:13;2.63;;;1.45;;
14994;SDS011;7593;49.006;8.372;2023-09-19T09:46:42;1.67;;;1.20;;
14994;SDS011;7593;49.006;8.372;2023-09-19T09:49:22;4.15;;;1.20;;
14994;SDS011;7593;49.006;8.372;2023-09-19T09:51:58;4.15;;;1.35;;
14994;SDS011;7593;49.006;8.372;2023-09-19T09:54:30;3.92;;;1.48;;
14994;SDS011;7593;49.006;8.372;2023-09-19T09:57:02;3.92;;;1.80;;
14994;SDS011;7593;49.006;8.372;2023-09-19T09:59:49;3.35;;;1.70;;
14994;SDS011;7593;49.006;8.372;2023-09-19T10:02:19;2.53;;;1.35;;
14994;SDS011;7593;49.006;8.372;2023-09-19T10:04:49;2.28;;;1.20;;
14994;SDS011;7593;49.006;8.372;2023-09-19T10:07:38;4.30;;;1.50;;
14994;SDS011;7593;49.006;8.372;2023-09-19T10:10:07;4.10;;;1.45;;
14994;SDS011;7593;49.006;8.372;2023-09-19T10:12:42;4.20;;;1.50;;
14994;SDS011;7593;49.006;8.372;2023-09-19T10:15:14;2.88;;;1.30;;
14994;SDS011;7593;49.006;8.372;2023-09-19T10:17:45;2.55;;;1.40;;
14994;SDS011;7593;49.006;8.372;2023-09-19T10:20:13;2.20;;;1.48;;
14994;SDS011;7593;49.006;8.372;2023-09-19T10:22:59;3.70;;;1.50;;
14994;SDS011;7593;49.006;8.372;2023-09-19T10:25:26;2.55;;;1.42;;
14994;SDS011;7593;49.006;8.372;2023-09-19T10:27:55;3.08;;;1.25;;
14994;SDS011;7593;49.006;8.372;2023-09-19T10:30:25;6.40;;;1.50;;
14994;SDS011;7593;49.006;8.372;2023-09-19T10:32:56;2.92;;;1.33;;
14994;SDS011;7593;49.006;8.372;2023-09-19T10:35:26;3.03;;;1.50;;
14994;SDS011;7593;49.006;8.372;2023-09-19T10:37:54;2.75;;;1.38;;
14994;SDS011;7593;49.006;8.372;2023-09-19T10:40:23;3.00;;;1.48;;
14994;SDS011;7593;49.006;8.372;2023-09-19T10:42:58;3.38;;;1.38;;
14994;SDS011;7593;49.006;8.372;2023-09-19T10:45:31;3.28;;;1.40;;
14994;SDS011;7593;49.006;8.372;2023-09-19T10:47:59;4.07;;;1.50;;
14994;SDS011;7593;49.006;8.372;2023-09-19T10:50:29;2.67;;;1.52;;
14994;SDS011;7593;49.006;8.372;2023-09-19T10:52:59;1.98;;;1.30;;
14994;SDS011;7593;49.006;8.372;2023-09-19T10:55:30;4.50;;;1.50;;
14994;SDS011;7593;49.006;8.372;2023-09-19T10:58:00;5.22;;;1.73;;
14994;SDS011;7593;49.006;8.372;2023-09-19T11:00:29;3.05;;;1.75;;
14994;SDS011;7593;49.006;8.372;2023-09-19T11:03:19;3.33;;;1.52;;
14994;SDS011;7593;49.006;8.372;2023-09-19T11:08:58;2.85;;;1.50;;
14994;SDS011;7593;49.006;8.372;2023-09-19T11:11:47;2.92;;;1.58;;
14994;SDS011;7593;49.006;8.372;2023-09-19T11:23:17;3.88;;;1.60;;
14994;SDS011;7593;49.006;8.372;2023-09-19T11:25:43;3.50;;;1.40;;
14994;SDS011;7593;49.006;8.372;2023-09-19T11:28:32;2.30;;;1.52;;
14994;SDS011;7593;49.006;8.372;2023-09-19T11:37:03;2.10;;;1.33;;
14994;SDS011;7593;49.006;8.372;2023-09-19T11:40:09;3.15;;;1.30;;
14994;SDS011;7593;49.006;8.372;2023-09-19T11:42:41;3.45;;;1.40;;
14994;SDS011;7593;49.006;8.372;2023-09-19T11:45:08;3.38;;;1.70;;
14994;SDS011;7593;49.006;8.372;2023-09-19T11:48:21;2.15;;;1.35;;
14994;SDS011;7593;49.006;8.372;2023-09-19T11:50:50;3.65;;;1.90;;
14994;SDS011;7593;49.006;8.372;2023-09-19T11:53:20;2.70;;;1.38;;
14994;SDS011;7593;49.006;8.372;2023-09-19T11:55:48;2.60;;;1.40;;
14994;SDS011;7593;49.006;8.372;2023-09-19T11:58:17;1.92;;;1.27;;
14994;SDS011;7593;49.006;8.372;2023-09-19T12:00:45;3.30;;;1.20;;
14994;SDS011;7593;49.006;8.372;2023-09-19T12:03:19;2.97;;;1.30;;
14994;SDS011;7593;49.006;8.372;2023-09-19T12:05:49;2.40;;;1.23;;
14994;SDS011;7593;49.006;8.372;2023-09-19T12:08:15;2.47;;;1.20;;
14994;SDS011;7593;49.006;8.372;2023-09-19T12:10:47;8.77;;;1.42;;
14994;SDS011;7593;49.006;8.372;2023-09-19T12:13:17;2.03;;;1.08;;
14994;SDS011;7593;49.006;8.372;2023-09-19T12:15:45;2.65;;;1.27;;
14994;SDS011;7593;49.006;8.372;2023-09-19T12:18:26;1.63;;;1.10;;
14994;SDS011;7593;49.006;8.372;2023-09-19T12:20:53;4.55;;;1.35;;
14994;SDS011;7593;49.006;8.372;2023-09-19T12:23:20;2.28;;;1.20;;
14994;SDS011;7593;49.006;8.372;2023-09-19T12:25:49;1.85;;;1.20;;
14994;SDS011;7593;49.006;8.372;2023-09-19T12:28:18;3.35;;;1.10;;
14994;SDS011;7593;49.006;8.372;2023-09-19T12:30:47;1.63;;;1.20;;
14994;SDS011;7593;49.006;8.372;2023-09-19T12:33:17;2.08;;;1.30;;
14994;SDS011;7593;49.006;8.372;2023-09-19T12:35:46;2.85;;;1.20;;
14994;SDS011;7593;49.006;8.372;2023-09-19T12:38:22;2.47;;;1.30;;
14994;SDS011;7593;49.006;8.372;2023-09-19T12:40:54;1.92;;;1.30;;
14994;SDS011;7593;49.006;8.372;2023-09-19T12:43:23;2.35;;;1.30;;
14994;SDS011;7593;49.006;8.372;2023-09-19T12:45:52;2.20;;;1.30;;
14994;SDS011;7593;49.006;8.372;2023-09-19T12:48:20;2.75;;;1.13;;
14994;SDS011;7593;49.006;8.372;2023-09-19T12:51:03;2.67;;;1.13;;
14994;SDS011;7593;49.006;8.372;2023-09-19T12:53:36;2.05;;;1.33;;
14994;SDS011;7593;49.006;8.372;2023-09-19T12:56:06;1.63;;;1.20;;
14994;SDS011;7593;49.006;8.372;2023-09-19T12:58:34;2.08;;;1.15;;
14994;SDS011;7593;49.006;8.372;2023-09-19T13:01:14;4.43;;;2.00;;
14994;SDS011;7593;49.006;8.372;2023-09-19T13:03:41;3.70;;;1.27;;
14994;SDS011;7593;49.006;8.372;2023-09-19T13:06:08;2.58;;;1.45;;
14994;SDS011;7593;49.006;8.372;2023-09-19T13:08:35;1.92;;;1.20;;
14994;SDS011;7593;49.006;8.372;2023-09-19T13:11:04;2.30;;;1.20;;
14994;SDS011;7593;49.006;8.372;2023-09-19T13:13:39;2.97;;;1.50;;
14994;SDS011;7593;49.006;8.372;2023-09-19T13:16:07;1.73;;;1.30;;
14994;SDS011;7593;49.006;8.372;2023-09-19T13:18:47;1.98;;;1.30;;
14994;SDS011;7593;49.006;8.372;2023-09-19T13:21:26;1.73;;;1.20;;
14994;SDS011;7593;49.006;8.372;2023-09-19T13:23:55;1.98;;;1.38;;
14994;SDS011;7593;49.006;8.372;2023-09-19T13:26:25;2.75;;;1.60;;
14994;SDS011;7593;49.006;8.372;2023-09-19T13:28:53;1.75;;;1.33;;
14994;SDS011;7593;49.006;8.372;2023-09-19T13:31:20;2.35;;;1.25;;
14994;SDS011;7593;49.006;8.372;2023-09-19T13:33:48;2.78;;;1.20;;
14994;SDS011;7593;49.006;8.372;2023-09-19T13:36:15;3.70;;;1.20;;
14994;SDS011;7593;49.006;8.372;2023-09-19T13:38:44;1.70;;;1.20;;
14994;SDS011;7593;49.006;8.372;2023-09-19T13:41:12;2.58;;;1.10;;
14994;SDS011;7593;49.006;8.372;2023-09-19T13:43:40;1.98;;;1.30;;
14994;SDS011;7593;49.006;8.372;2023-09-19T13:46:07;1.77;;;1.10;;
14994;SDS011;7593;49.006;8.372;2023-09-19T13:48:37;1.83;;;1.10;;
14994;SDS011;7593;49.006;8.372;2023-09-19T13:51:04;1.30;;;1.20;;
14994;SDS011;7593;49.006;8.372;2023-09-19T13:53:30;1.80;;;1.20;;
14994;SDS011;7593;49.006;8.372;2023-09-19T13:55:57;1.52;;;1.20;;
14994;SDS011;7593;49.006;8.372;2023-09-19T13:58:24;2.13;;;1.40;;
14994;SDS011;7593;49.006;8.372;2023-09-19T14:00:53;2.00;;;1.52;;
14994;SDS011;7593;49.006;8.372;2023-09-19T14:03:23;1.45;;;1.27;;
14994;SDS011;7593;49.006;8.372;2023-09-19T14:05:50;5.32;;;1.35;;
14994;SDS011;7593;49.006;8.372;2023-09-19T14:08:17;1.50;;;0.98;;
14994;SDS011;7593;49.006;8.372;2023-09-19T14:10:44;2.95;;;1.17;;
14994;SDS011;7593;49.006;8.372;2023-09-19T14:13:11;2.45;;;1.23;;
14994;SDS011;7593;49.006;8.372;2023-09-19T14:15:40;2.95;;;1.20;;
14994;SDS011;7593;49.006;8.372;2023-09-19T14:18:08;1.60;;;1.10;;
14994;SDS011;7593;49.006;8.372;2023-09-19T14:20:37;1.30;;;0.95;;
14994;SDS011;7593;49.006;8.372;2023-09-19T14:23:05;5.75;;;1.30;;
14994;SDS011;7593;49.006;8.372;2023-09-19T14:25:33;1.42;;;1.10;;
14994;SDS011;7593;49.006;8.372;2023-09-19T14:28:01;2.25;;;1.08;;
14994;SDS011;7593;49.006;8.372;2023-09-19T14:30:28;2.38;;;1.23;;
14994;SDS011;7593;49.006;8.372;2023-09-19T14:32:54;1.52;;;1.13;;
14994;SDS011;7593;49.006;8.372;2023-09-19T14:35:24;1.25;;;0.93;;
14994;SDS011;7593;49.006;8.372;2023-09-19T14:37:51;3.53;;;1.20;;
14994;SDS011;7593;49.006;8.372;2023-09-19T14:40:18;2.55;;;1.00;;
14994;SDS011;7593;49.006;8.372;2023-09-19T14:42:45;1.50;;;0.93;;
14994;SDS011;7593;49.006;8.372;2023-09-19T14:45:12;2.38;;;1.05;;
14994;SDS011;7593;49.006;8.372;2023-09-19T14:47:41;2.25;;;1.30;;
14994;SDS011;7593;49.006;8.372;2023-09-19T14:50:08;2.03;;;1.00;;
14994;SDS011;7593;49.006;8.372;2023-09-19T14:52:38;2.38;;;1.20;;
14994;SDS011;7593;49.006;8.372;2023-09-19T14:55:06;2.00;;;1.50;;
14994;SDS011;7593;49.006;8.372;2023-09-19T14:57:34;1.75;;;1.35;;
14994;SDS011;7593;49.006;8.372;2023-09-19T15:00:05;2.67;;;1.30;;
14994;SDS011;7593;49.006;8.372;2023-09-19T15:02:36;3.63;;;1.40;;
14994;SDS011;7593;49.006;8.372;2023-09-19T15:05:04;2.75;;;1.33;;
14994;SDS011;7593;49.006;8.372;2023-09-19T15:07:32;1.95;;;0.90;;
14994;SDS011;7593;49.006;8.372;2023-09-19T15:10:03;1.92;;;1.20;;
14994;SDS011;7593;49.006;8.372;2023-09-19T15:12:34;1.67;;;1.17;;
14994;SDS011;7593;49.006;8.372;2023-09-19T15:15:02;1.63;;;1.08;;
14994;SDS011;7593;49.006;8.372;2023-09-19T15:17:33;1.42;;;1.05;;
14994;SDS011;7593;49.006;8.372;2023-09-19T15:19:59;2.75;;;1.13;;
14994;SDS011;7593;49.006;8.372;2023-09-19T15:22:27;2.15;;;1.15;;
14994;SDS011;7593;49.006;8.372;2023-09-19T15:24:53;1.70;;;1.30;;
14994;SDS011;7593;49.006;8.372;2023-09-19T15:27:22;2.15;;;1.20;;
14994;SDS011;7593;49.006;8.372;2023-09-19T15:29:49;2.28;;;1.30;;
14994;SDS011;7593;49.006;8.372;2023-09-19T15:32:16;1.75;;;1.20;;
14994;SDS011;7593;49.006;8.372;2023-09-19T15:34:43;2.03;;;1.20;;